Time;durP1;ratioP1;P1;durP2;ratioP2;P2;SDS_P1;SDS_P2;PMS_P1;PMS_P2;Temp;Humidity;BMP_temperature;BMP_pressure;BME280_temperature;BME280_humidity;BME280_pressure;Samples;Min_cycle;Max_cycle;Signal;HPM_P1;HPM_P2
2022/07/04 00:00:17;;;;;;;2.80;1.47;;;15.90;99.90;;;;;;6159017;23;20164;-83
2022/07/04 00:02:45;;;;;;;1.80;1.60;;;15.80;99.90;;;;;;6182235;23;20537;-83
2022/07/04 00:05:13;;;;;;;2.63;1.90;;;15.80;99.90;;;;;;6181024;23;20721;-83
2022/07/04 00:07:42;;;;;;;2.03;1.73;;;15.80;99.90;;;;;;6156774;23;20231;-84
2022/07/04 00:10:11;;;;;;;3.10;1.93;;;15.70;99.90;;;;;;6207150;23;20167;-83
2022/07/04 00:12:38;;;;;;;1.80;1.70;;;15.70;99.90;;;;;;6182817;23;20179;-83
2022/07/04 00:15:06;;;;;;;3.47;1.60;;;15.70;99.90;;;;;;6133509;23;20184;-83
2022/07/04 00:17:33;;;;;;;1.93;1.70;;;15.60;99.90;;;;;;6158516;23;20217;-83
2022/07/04 00:20:01;;;;;;;3.73;1.83;;;15.50;99.90;;;;;;6181740;23;20160;-83
2022/07/04 00:22:28;;;;;;;2.10;2.00;;;15.50;99.90;;;;;;6184357;23;20156;-83
2022/07/04 00:24:55;;;;;;;3.63;2.20;;;15.50;99.90;;;;;;6159492;23;20191;-83
2022/07/04 00:27:22;;;;;;;3.77;2.00;;;15.50;99.90;;;;;;6184167;23;20176;-83
2022/07/04 00:29:49;;;;;;;6.53;1.90;;;15.50;99.90;;;;;;6184583;23;20174;-83
2022/07/04 00:32:16;;;;;;;2.90;1.73;;;15.50;99.90;;;;;;6162091;23;20162;-83
2022/07/04 00:34:43;;;;;;;2.53;1.90;;;15.50;99.90;;;;;;6187267;23;20626;-83
2022/07/04 00:37:10;;;;;;;4.80;2.10;;;15.50;99.90;;;;;;6166130;23;20198;-83
2022/07/04 00:39:37;;;;;;;3.97;2.30;;;15.50;99.90;;;;;;6166375;23;20519;-83
2022/07/04 00:42:07;;;;;;;3.63;1.90;;;15.50;99.90;;;;;;6142463;23;20211;-83
2022/07/04 00:44:36;;;;;;;3.23;1.70;;;15.50;99.90;;;;;;6169015;23;20166;-82
2022/07/04 00:47:04;;;;;;;3.47;1.90;;;15.40;99.90;;;;;;6192256;23;20198;-83
2022/07/04 00:49:32;;;;;;;2.00;1.73;;;15.30;99.90;;;;;;6165329;23;20258;-82
2022/07/04 00:52:00;;;;;;;4.20;2.10;;;15.40;99.90;;;;;;6164847;23;20170;-83
2022/07/04 00:54:30;;;;;;;2.23;1.70;;;15.50;99.90;;;;;;6164319;23;20191;-83
2022/07/04 00:56:57;;;;;;;3.20;2.40;;;15.40;99.90;;;;;;6162649;23;20198;-83
2022/07/04 00:59:26;;;;;;;5.30;2.23;;;15.30;99.90;;;;;;6162521;23;20234;-83
2022/07/04 01:01:52;;;;;;;4.03;1.90;;;15.40;99.90;;;;;;6163132;23;20179;-84
2022/07/04 01:04:19;;;;;;;4.37;2.10;;;15.40;99.90;;;;;;6161762;23;20199;-83
2022/07/04 01:06:46;;;;;;;4.07;2.10;;;15.30;99.90;;;;;;6158669;23;20242;-84
2022/07/04 01:09:14;;;;;;;3.10;2.03;;;15.40;99.90;;;;;;6179209;23;20172;-83
2022/07/04 01:11:41;;;;;;;2.43;2.00;;;15.40;99.90;;;;;;6153062;23;20164;-83
2022/07/04 01:14:08;;;;;;;4.93;2.37;;;15.40;99.90;;;;;;6177558;23;20172;-84
2022/07/04 01:16:35;;;;;;;2.47;2.00;;;15.50;99.90;;;;;;6153383;23;20237;-83
2022/07/04 01:19:02;;;;;;;2.87;2.07;;;15.50;99.90;;;;;;6153828;23;20167;-83
2022/07/04 01:21:31;;;;;;;2.97;2.10;;;15.50;99.90;;;;;;6151690;23;20167;-83
2022/07/04 01:23:58;;;;;;;2.50;2.07;;;15.50;99.90;;;;;;6153765;23;20228;-83
2022/07/04 01:26:27;;;;;;;4.33;2.20;;;15.40;99.90;;;;;;6152765;23;20172;-84
2022/07/04 01:28:54;;;;;;;3.03;2.10;;;15.40;99.90;;;;;;6152320;23;20262;-84
2022/07/04 01:31:21;;;;;;;3.03;2.47;;;15.30;99.90;;;;;;6177420;23;20214;-81
2022/07/04 01:33:49;;;;;;;3.53;2.60;;;15.30;99.90;;;;;;6180181;23;20166;-83
2022/07/04 01:36:16;;;;;;;2.67;2.10;;;15.30;99.90;;;;;;6150518;23;20160;-83
2022/07/04 01:38:43;;;;;;;4.57;2.70;;;15.30;99.90;;;;;;6152820;23;20468;-83
2022/07/04 01:41:09;;;;;;;2.83;2.47;;;15.30;99.90;;;;;;6175952;23;20206;-82
2022/07/04 01:43:36;;;;;;;4.80;2.40;;;15.30;99.90;;;;;;6128634;23;20164;-83
2022/07/04 01:46:03;;;;;;;4.67;2.80;;;15.20;99.90;;;;;;6127925;23;20156;-83
2022/07/04 01:48:30;;;;;;;3.70;2.50;;;15.30;99.90;;;;;;6128515;23;20175;-83
2022/07/04 01:50:57;;;;;;;2.93;2.27;;;15.30;99.90;;;;;;6127388;23;20177;-82
2022/07/04 01:53:24;;;;;;;5.97;2.80;;;15.40;99.90;;;;;;6127782;23;20191;-84
2022/07/04 01:55:51;;;;;;;3.80;2.87;;;15.20;99.90;;;;;;6177074;23;20175;-82
2022/07/04 01:58:18;;;;;;;4.60;2.60;;;15.20;99.90;;;;;;6128455;23;20628;-83
2022/07/04 02:03:31;;;;;;;3.70;2.43;;;15.10;99.90;;;;;;6156472;23;20167;-82
2022/07/04 02:05:58;;;;;;;3.13;2.50;;;15.10;99.90;;;;;;6152823;23;20168;-82
2022/07/04 02:09:14;;;;;;;4.20;2.77;;;15.10;99.90;;;;;;6153028;23;20167;-82
2022/07/04 02:11:12;;;;;;;4.27;2.63;;;15.10;99.90;;;;;;6155185;23;20182;-82
2022/07/04 02:13:38;;;;;;;4.90;2.53;;;15.00;99.90;;;;;;6128184;23;20218;-82
2022/07/04 02:16:05;;;;;;;3.73;2.60;;;15.00;99.90;;;;;;6128294;23;20166;-82
2022/07/04 02:18:32;;;;;;;4.97;2.80;;;15.00;99.90;;;;;;6128035;23;20945;-82
2022/07/04 02:20:59;;;;;;;4.67;2.60;;;14.80;99.90;;;;;;6150659;23;20193;-82
2022/07/04 02:23:26;;;;;;;7.93;2.63;;;14.90;99.90;;;;;;6129293;23;20217;-81
2022/07/04 02:25:53;;;;;;;3.73;2.40;;;14.90;99.90;;;;;;6131687;23;20164;-81
2022/07/04 02:28:20;;;;;;;3.00;2.37;;;15.00;99.90;;;;;;6127916;23;20238;-81
2022/07/04 02:30:47;;;;;;;4.60;2.97;;;14.80;99.90;;;;;;6128722;23;20166;-82
2022/07/04 02:33:13;;;;;;;3.03;2.57;;;14.80;99.90;;;;;;6128836;23;20171;-81
2022/07/04 02:35:40;;;;;;;3.43;2.30;;;14.70;99.90;;;;;;6129023;23;20171;-82
2022/07/04 02:38:07;;;;;;;2.83;2.30;;;14.70;99.90;;;;;;6129794;23;20207;-81
2022/07/04 02:40:34;;;;;;;4.07;2.53;;;14.80;99.90;;;;;;6128211;23;20227;-82
2022/07/04 02:43:02;;;;;;;3.33;2.33;;;14.90;99.90;;;;;;6153393;23;20701;-81
2022/07/04 02:45:29;;;;;;;4.03;2.80;;;14.90;99.90;;;;;;6158869;23;20295;-82
2022/07/04 02:47:56;;;;;;;4.23;2.60;;;14.70;99.90;;;;;;6135582;23;20170;-81
2022/07/04 02:50:23;;;;;;;3.17;2.40;;;14.70;99.90;;;;;;6181005;23;20215;-82
2022/07/04 02:52:50;;;;;;;4.60;2.27;;;14.80;99.90;;;;;;6158503;23;20160;-81
2022/07/04 02:55:17;;;;;;;3.30;2.53;;;14.70;99.90;;;;;;6132057;23;20163;-82
2022/07/04 02:57:44;;;;;;;2.47;2.27;;;14.60;99.90;;;;;;6133237;23;20189;-82
2022/07/04 03:00:11;;;;;;;3.40;2.70;;;14.60;99.90;;;;;;6134387;23;20220;-82
2022/07/04 03:02:38;;;;;;;3.60;2.70;;;14.60;99.90;;;;;;6134247;23;20174;-82
2022/07/04 03:05:06;;;;;;;4.40;2.90;;;14.60;99.90;;;;;;6133106;23;20483;-82
2022/07/04 03:07:32;;;;;;;5.83;3.10;;;14.60;99.90;;;;;;6158910;23;20204;-82
2022/07/04 03:09:59;;;;;;;3.73;2.50;;;14.40;99.90;;;;;;6132587;23;20170;-82
2022/07/04 03:12:26;;;;;;;3.87;2.50;;;14.40;99.90;;;;;;6156895;23;20171;-81
2022/07/04 03:14:53;;;;;;;3.50;2.37;;;14.50;99.90;;;;;;6158167;23;20209;-82
2022/07/04 03:17:20;;;;;;;7.47;2.53;;;14.40;99.90;;;;;;6158935;23;20247;-82
2022/07/04 03:19:47;;;;;;;5.93;3.00;;;14.50;99.90;;;;;;6157137;23;20159;-81
2022/07/04 03:22:14;;;;;;;3.40;2.63;;;14.40;99.90;;;;;;6158802;23;20240;-82
2022/07/04 03:24:41;;;;;;;4.97;2.90;;;14.20;99.90;;;;;;6183275;23;20620;-81
2022/07/04 03:27:09;;;;;;;6.10;3.00;;;14.10;99.90;;;;;;6158513;23;20538;-81
2022/07/04 03:29:36;;;;;;;4.93;2.83;;;14.20;99.90;;;;;;6183005;23;20228;-81
2022/07/04 03:32:04;;;;;;;4.23;2.63;;;14.30;99.90;;;;;;6134636;23;20679;-82
2022/07/04 03:34:31;;;;;;;3.90;2.80;;;14.30;99.90;;;;;;6158731;23;20193;-82
2022/07/04 03:36:58;;;;;;;5.47;2.90;;;14.30;99.90;;;;;;6181625;23;20170;-81
2022/07/04 03:39:25;;;;;;;4.93;2.80;;;14.30;99.90;;;;;;6158700;23;20164;-82
2022/07/04 03:41:52;;;;;;;5.50;2.77;;;14.40;99.90;;;;;;6156590;23;20692;-82
2022/07/04 03:44:19;;;;;;;3.77;3.20;;;14.40;99.90;;;;;;6184472;23;20185;-81
2022/07/04 03:46:46;;;;;;;6.10;2.70;;;14.40;99.90;;;;;;6132816;23;20586;-82
2022/07/04 03:49:12;;;;;;;5.63;3.40;;;14.40;99.90;;;;;;6133788;23;20496;-81
2022/07/04 03:51:39;;;;;;;3.80;2.60;;;14.40;99.90;;;;;;6132609;23;20166;-81
2022/07/04 03:54:06;;;;;;;4.00;2.70;;;14.50;99.90;;;;;;6132850;23;20163;-82
2022/07/04 03:56:33;;;;;;;4.10;3.13;;;14.50;99.90;;;;;;6157445;23;20173;-81
2022/07/04 03:59:00;;;;;;;5.47;3.53;;;14.50;99.90;;;;;;6158310;23;20186;-81
2022/07/04 04:01:29;;;;;;;3.87;2.87;;;14.50;99.90;;;;;;6133181;23;20174;-81
2022/07/04 04:06:41;;;;;;;3.93;3.30;;;14.50;99.90;;;;;;6186183;23;20183;-82
2022/07/04 04:09:13;;;;;;;4.63;3.60;;;14.60;99.90;;;;;;6158022;23;20806;-81
2022/07/04 04:11:40;;;;;;;6.33;3.17;;;14.50;99.90;;;;;;6158344;23;20163;-81
2022/07/04 04:14:07;;;;;;;7.77;3.37;;;14.50;99.90;;;;;;6135349;23;20420;-82
2022/07/04 04:16:34;;;;;;;5.53;4.00;;;14.40;99.90;;;;;;6134382;23;20170;-81
2022/07/04 04:19:01;;;;;;;6.67;3.67;;;14.50;99.90;;;;;;6158869;23;20219;-82
2022/07/04 04:21:27;;;;;;;5.50;3.60;;;14.60;99.90;;;;;;6132470;23;20256;-82
2022/07/04 04:23:54;;;;;;;5.87;3.60;;;14.60;99.90;;;;;;6184721;23;20163;-81
2022/07/04 04:26:21;;;;;;;5.37;3.57;;;14.70;99.90;;;;;;6184907;23;20173;-81
2022/07/04 04:28:48;;;;;;;4.47;3.10;;;14.80;99.90;;;;;;6160346;23;20166;-83
2022/07/04 04:31:17;;;;;;;5.67;3.73;;;14.90;99.90;;;;;;6136418;23;20164;-82
2022/07/04 04:33:45;;;;;;;5.53;3.13;;;14.90;99.90;;;;;;6164294;23;20195;-83
2022/07/04 04:36:12;;;;;;;5.50;3.53;;;14.90;99.90;;;;;;6220665;23;20177;-81
2022/07/04 04:38:39;;;;;;;5.80;3.27;;;14.80;99.90;;;;;;6193512;23;20188;-81
2022/07/04 04:41:06;;;;;;;4.70;3.27;;;14.90;99.90;;;;;;6164264;23;20238;-82
2022/07/04 04:43:33;;;;;;;4.57;2.97;;;15.00;99.90;;;;;;6160111;23;20199;-82
2022/07/04 04:46:00;;;;;;;4.93;3.50;;;15.00;99.90;;;;;;6134522;23;20260;-81
2022/07/04 04:48:27;;;;;;;4.67;3.60;;;15.00;99.90;;;;;;6133236;23;20172;-81
2022/07/04 04:50:53;;;;;;;4.10;3.70;;;15.00;99.90;;;;;;6158501;23;20219;-82
2022/07/04 04:53:25;;;;;;;8.80;4.80;;;15.00;99.90;;;;;;6158845;23;20169;-81
2022/07/04 04:55:55;;;;;;;4.00;3.57;;;14.70;99.90;;;;;;6159282;23;20172;-82
2022/07/04 04:58:22;;;;;;;7.77;4.83;;;14.80;99.90;;;;;;6157857;23;20191;-81
2022/07/04 05:00:49;;;;;;;6.77;4.33;;;14.90;99.90;;;;;;6156301;23;20161;-81
2022/07/04 05:03:36;;;;;;;5.70;4.10;;;14.80;99.90;;;;;;6138387;23;20622;-81
2022/07/04 05:06:03;;;;;;;7.10;3.47;;;15.00;99.90;;;;;;6153218;23;20160;-81
2022/07/04 05:08:30;;;;;;;11.03;5.87;;;15.00;99.90;;;;;;6128678;23;20171;-81
2022/07/04 05:10:58;;;;;;;6.60;4.00;;;15.00;99.90;;;;;;6127217;23;20203;-81
2022/07/04 05:13:25;;;;;;;5.70;4.10;;;15.00;99.90;;;;;;6152751;23;20161;-81
2022/07/04 05:15:52;;;;;;;7.07;3.63;;;15.00;99.90;;;;;;6127515;23;20172;-81
2022/07/04 05:18:20;;;;;;;8.27;4.17;;;14.90;99.90;;;;;;6128801;23;20184;-82
2022/07/04 05:20:47;;;;;;;4.83;3.83;;;15.20;99.90;;;;;;6152526;23;20157;-82
2022/07/04 05:23:16;;;;;;;4.57;3.77;;;15.30;99.90;;;;;;6153414;23;20175;-82
2022/07/04 05:25:42;;;;;;;8.13;3.73;;;15.40;99.90;;;;;;6152947;23;20180;-82
2022/07/04 05:28:09;;;;;;;4.70;3.80;;;15.30;99.90;;;;;;6127352;23;20200;-82
2022/07/04 05:30:36;;;;;;;7.53;3.47;;;15.30;99.90;;;;;;6151728;23;20184;-81
2022/07/04 05:33:03;;;;;;;5.17;3.80;;;15.50;99.90;;;;;;6128782;23;20177;-81
2022/07/04 05:35:31;;;;;;;5.87;3.90;;;15.40;99.90;;;;;;6127094;23;20206;-82
2022/07/04 05:37:58;;;;;;;7.97;4.53;;;15.40;99.90;;;;;;6128832;23;20189;-82
2022/07/04 05:40:25;;;;;;;4.03;3.67;;;15.60;99.90;;;;;;6127680;23;20250;-82
2022/07/04 05:42:52;;;;;;;5.30;4.13;;;15.60;99.90;;;;;;6150200;23;20615;-81
2022/07/04 05:45:20;;;;;;;5.33;4.10;;;15.60;99.90;;;;;;6132718;23;20175;-81
2022/07/04 05:47:47;;;;;;;5.70;3.97;;;15.70;99.90;;;;;;6158336;23;20669;-81
2022/07/04 05:50:14;;;;;;;7.27;4.50;;;16.10;99.90;;;;;;6155574;23;20319;-82
2022/07/04 05:52:41;;;;;;;8.47;4.23;;;15.90;99.90;;;;;;6133613;23;20168;-82
2022/07/04 05:55:08;;;;;;;9.07;4.50;;;15.90;99.90;;;;;;6131586;23;20203;-84
2022/07/04 05:57:35;;;;;;;6.07;4.03;;;15.90;99.90;;;;;;6133604;23;20178;-80
2022/07/04 06:00:07;;;;;;;5.80;4.47;;;15.90;99.90;;;;;;6154049;23;20595;-81
2022/07/04 06:02:34;;;;;;;8.87;4.60;;;16.10;99.90;;;;;;6157868;23;20172;-82
2022/07/04 06:05:01;;;;;;;5.43;4.17;;;16.10;99.90;;;;;;6130895;23;20164;-82
2022/07/04 06:07:28;;;;;;;7.27;4.23;;;16.20;99.90;;;;;;6133218;23;20225;-82
2022/07/04 06:09:55;;;;;;;9.60;4.47;;;16.20;99.90;;;;;;6132524;23;20559;-82
2022/07/04 06:12:22;;;;;;;7.23;4.67;;;16.30;99.90;;;;;;6158745;23;20242;-82
2022/07/04 06:14:49;;;;;;;10.77;4.57;;;16.60;99.90;;;;;;6156849;23;20182;-83
2022/07/04 06:17:16;;;;;;;10.07;3.83;;;16.50;99.90;;;;;;6131252;23;20176;-81
2022/07/04 06:19:43;;;;;;;4.67;3.87;;;16.60;99.90;;;;;;6156194;23;20494;-81
2022/07/04 06:22:12;;;;;;;10.77;5.43;;;16.70;99.90;;;;;;6133539;23;20165;-82
2022/07/04 06:24:40;;;;;;;7.30;4.40;;;16.70;99.90;;;;;;6133509;23;20160;-81
2022/07/04 06:27:07;;;;;;;11.50;4.23;;;16.60;99.90;;;;;;6156647;23;20243;-81
2022/07/04 06:29:34;;;;;;;6.03;4.00;;;16.80;99.90;;;;;;6137438;23;20181;-82
2022/07/04 06:32:01;;;;;;;11.10;4.33;;;17.30;99.90;;;;;;6159590;23;20266;-79
2022/07/04 06:37:13;;;;;;;15.50;6.80;;;17.30;99.90;;;;;;6166729;23;20226;-80
2022/07/04 06:39:40;;;;;;;13.77;5.13;;;17.40;99.90;;;;;;6134497;23;20670;-84
2022/07/04 06:42:07;;;;;;;7.67;3.70;;;17.50;99.90;;;;;;6183905;23;20743;-82
2022/07/04 06:44:34;;;;;;;10.07;4.27;;;17.50;99.90;;;;;;6184441;23;20226;-83
2022/07/04 06:47:01;;;;;;;7.23;4.50;;;17.40;99.90;;;;;;6183300;23;20451;-85
2022/07/04 06:49:28;;;;;;;8.73;4.13;;;17.40;99.90;;;;;;6185269;23;20229;-85
2022/07/04 06:51:54;;;;;;;7.63;5.10;;;17.40;99.90;;;;;;6135571;23;20209;-84
2022/07/04 06:54:21;;;;;;;10.87;5.27;;;17.30;99.90;;;;;;6133999;23;20168;-84
2022/07/04 06:56:48;;;;;;;9.13;5.37;;;17.50;99.90;;;;;;6133718;23;20164;-84
2022/07/04 06:59:19;;;;;;;7.77;4.60;;;17.70;99.90;;;;;;6136497;23;20184;-83
2022/07/04 07:01:46;;;;;;;7.07;4.50;;;17.60;99.90;;;;;;6183058;23;20445;-84
2022/07/04 07:04:13;;;;;;;11.83;6.10;;;17.70;99.90;;;;;;6133240;23;20166;-84
2022/07/04 07:06:40;;;;;;;13.50;5.93;;;17.80;99.90;;;;;;6133324;23;20164;-84
2022/07/04 07:09:07;;;;;;;12.53;6.23;;;17.80;99.90;;;;;;6158407;23;20160;-83
2022/07/04 07:11:34;;;;;;;14.50;6.07;;;18.00;99.90;;;;;;6134744;23;20196;-84
2022/07/04 07:14:00;;;;;;;12.50;5.70;;;18.10;99.90;;;;;;6159049;23;20226;-85
2022/07/04 07:16:27;;;;;;;8.43;5.47;;;18.20;99.90;;;;;;6158766;23;20628;-82
2022/07/04 07:18:54;;;;;;;11.13;5.57;;;18.20;99.90;;;;;;6159747;23;20183;-83
2022/07/04 07:21:21;;;;;;;10.70;5.60;;;18.20;99.90;;;;;;6159314;23;20165;-83
2022/07/04 07:23:49;;;;;;;14.80;5.93;;;18.00;99.90;;;;;;6137833;23;20161;-84
2022/07/04 07:26:16;;;;;;;15.77;6.60;;;18.20;99.90;;;;;;6160093;23;20160;-81
2022/07/04 07:28:43;;;;;;;16.53;7.17;;;18.30;99.90;;;;;;6155197;23;20596;-81
2022/07/04 07:31:10;;;;;;;11.80;5.70;;;18.60;99.90;;;;;;6160128;23;20169;-81
2022/07/04 07:33:37;;;;;;;13.40;5.60;;;18.60;99.90;;;;;;6159326;23;20576;-82
2022/07/04 07:36:04;;;;;;;11.73;5.20;;;18.50;99.90;;;;;;6160055;23;20169;-82
2022/07/04 07:38:31;;;;;;;10.47;5.47;;;18.60;99.90;;;;;;6184818;23;20218;-82
2022/07/04 07:40:58;;;;;;;11.47;5.80;;;18.70;99.90;;;;;;6159220;23;20191;-82
2022/07/04 07:43:25;;;;;;;9.70;6.33;;;19.00;99.90;;;;;;6157928;23;20197;-81
2022/07/04 07:45:52;;;;;;;9.17;5.63;;;19.10;99.90;;;;;;6156093;23;20201;-82
2022/07/04 07:48:19;;;;;;;13.20;5.73;;;19.50;99.90;;;;;;6155818;23;20170;-81
2022/07/04 07:50:46;;;;;;;12.37;5.80;;;19.40;99.90;;;;;;6128464;23;20222;-81
2022/07/04 07:53:13;;;;;;;13.07;5.70;;;19.60;99.90;;;;;;6159969;23;20486;-81
2022/07/04 07:55:40;;;;;;;9.97;5.00;;;19.80;99.90;;;;;;6153246;23;20622;-81
2022/07/04 07:58:06;;;;;;;14.50;5.30;;;20.10;99.90;;;;;;6207651;23;20190;-81
2022/07/04 08:00:33;;;;;;;8.37;5.50;;;20.40;99.90;;;;;;6132409;23;20214;-82
2022/07/04 08:06:06;;;;;;;9.57;5.70;;;20.50;99.90;;;;;;6214834;23;20163;-83
2022/07/04 08:08:33;;;;;;;9.17;5.47;;;20.10;99.90;;;;;;6164409;23;20590;-82
2022/07/04 08:11:00;;;;;;;8.10;4.63;;;19.80;99.90;;;;;;6140589;23;20308;-83
2022/07/04 08:13:27;;;;;;;10.93;4.90;;;20.00;99.90;;;;;;6141114;23;20584;-84
2022/07/04 08:15:54;;;;;;;9.20;4.03;;;20.10;99.90;;;;;;6166909;23;20170;-82
2022/07/04 08:18:22;;;;;;;9.40;4.47;;;19.80;99.90;;;;;;6165602;23;20187;-80
2022/07/04 08:20:50;;;;;;;11.55;5.65;;;20.20;99.90;;;;;;6161132;23;20409;-84
2022/07/04 08:23:37;;;;;;;9.63;4.77;;;20.10;99.90;;;;;;6173784;23;20496;-85
2022/07/04 08:26:13;;;;;;;11.20;4.17;;;20.60;99.90;;;;;;6191303;23;20160;-85
2022/07/04 08:28:40;;;;;;;8.30;3.93;;;20.70;99.90;;;;;;6164712;23;20222;-84
2022/07/04 08:31:07;;;;;;;7.87;3.47;;;20.70;99.90;;;;;;6190455;23;20164;-84
2022/07/04 08:33:34;;;;;;;6.43;3.50;;;21.20;99.90;;;;;;6143475;23;20176;-84
2022/07/04 08:36:02;;;;;;;10.10;3.40;;;20.90;99.90;;;;;;6143970;23;20188;-84
2022/07/04 08:38:29;;;;;;;9.83;3.17;;;20.20;99.90;;;;;;6172582;23;20536;-85
2022/07/04 08:40:58;;;;;;;6.83;3.23;;;20.00;99.90;;;;;;6191740;23;20207;-85
2022/07/04 08:43:26;;;;;;;5.53;2.40;;;20.20;99.90;;;;;;6191555;23;20266;-84
2022/07/04 08:45:54;;;;;;;5.33;2.40;;;20.80;99.90;;;;;;6217729;23;20183;-85
2022/07/04 08:48:42;;;;;;;6.20;2.47;;;20.80;99.90;;;;;;6196338;23;20262;-84
2022/07/04 08:51:16;;;;;;;6.87;2.67;;;21.00;99.90;;;;;;6141747;23;20488;-84
2022/07/04 08:53:52;;;;;;;2.87;2.20;;;21.30;99.90;;;;;;6189092;23;20487;-83
2022/07/04 08:59:08;;;;;;;8.00;2.83;;;21.30;99.90;;;;;;6217907;23;20188;-84
2022/07/04 09:01:36;;;;;;;5.40;2.63;;;20.90;99.90;;;;;;6164065;23;20242;-84
2022/07/04 09:04:04;;;;;;;7.37;2.77;;;20.60;99.90;;;;;;6163064;23;20507;-84
2022/07/04 09:06:31;;;;;;;4.13;2.40;;;20.50;99.90;;;;;;6161521;23;20175;-83
2022/07/04 09:08:59;;;;;;;5.90;2.60;;;20.50;99.90;;;;;;6136697;23;20184;-83
2022/07/04 09:11:25;;;;;;;6.40;2.43;;;21.10;99.90;;;;;;6159434;23;20222;-83
2022/07/04 09:13:52;;;;;;;7.27;2.73;;;21.40;99.90;;;;;;6159930;23;20263;-84
2022/07/04 09:16:19;;;;;;;5.47;2.40;;;21.20;99.90;;;;;;6162938;23;20164;-83
2022/07/04 09:18:46;;;;;;;8.23;3.17;;;21.30;99.90;;;;;;6162800;23;20242;-84
2022/07/04 09:21:13;;;;;;;9.57;2.97;;;21.20;99.90;;;;;;6183611;23;20171;-84
2022/07/04 09:23:42;;;;;;;10.13;3.07;;;20.70;99.90;;;;;;6158817;23;20167;-83
2022/07/04 09:26:16;;;;;;;7.23;3.20;;;20.70;99.90;;;;;;6184440;23;20166;-83
2022/07/04 09:28:49;;;;;;;11.17;4.47;;;21.20;99.90;;;;;;6184661;23;20162;-83
2022/07/04 09:31:21;;;;;;;7.43;3.57;;;21.70;99.90;;;;;;6183283;23;20948;-80
2022/07/04 09:33:49;;;;;;;6.13;3.27;;;21.90;99.90;;;;;;6181742;23;20424;-81
2022/07/04 09:36:19;;;;;;;6.72;3.67;;;21.90;99.90;;;;;;6185573;23;20452;-83
2022/07/04 09:39:03;;;;;;;5.13;2.93;;;21.40;99.90;;;;;;6183302;23;20194;-83
2022/07/04 09:41:34;;;;;;;5.87;3.00;;;21.30;99.90;;;;;;6185412;23;20536;-82
2022/07/04 09:44:06;;;;;;;7.47;3.37;;;21.10;99.90;;;;;;6211391;23;20251;-83
2022/07/04 09:46:33;;;;;;;7.83;3.47;;;21.00;99.90;;;;;;6188400;23;20223;-83
2022/07/04 09:49:00;;;;;;;8.10;3.63;;;20.80;99.90;;;;;;6137704;23;20167;-83
2022/07/04 09:51:45;;;;;;;5.67;3.20;;;20.70;99.90;;;;;;6158571;23;20169;-82
2022/07/04 09:54:17;;;;;;;7.63;3.87;;;20.90;99.90;;;;;;6183672;23;20168;-83
2022/07/04 09:56:46;;;;;;;7.00;3.10;;;20.80;99.90;;;;;;6160980;23;20689;-82
2022/07/04 09:59:13;;;;;;;4.93;2.67;;;20.50;99.90;;;;;;6213788;23;20188;-83
2022/07/04 10:01:40;;;;;;;5.70;3.30;;;20.60;99.90;;;;;;6134928;23;20172;-82
2022/07/04 10:04:09;;;;;;;9.50;4.03;;;20.70;99.90;;;;;;6156379;23;20244;-81
2022/07/04 10:06:38;;;;;;;5.43;3.57;;;20.70;99.90;;;;;;6131321;23;20168;-81
2022/07/04 10:09:12;;;;;;;12.50;3.40;;;20.70;99.90;;;;;;6182240;23;20630;-82
2022/07/04 10:11:40;;;;;;;5.67;3.47;;;20.70;99.90;;;;;;6180671;23;20176;-82
2022/07/04 10:14:09;;;;;;;4.97;3.20;;;20.70;99.90;;;;;;6158792;23;20203;-82
2022/07/04 10:16:38;;;;;;;10.90;3.73;;;20.60;99.90;;;;;;6181984;23;20627;-82
2022/07/04 10:19:07;;;;;;;4.33;3.13;;;20.60;99.90;;;;;;6159455;23;20279;-82
2022/07/04 10:21:34;;;;;;;7.10;3.53;;;20.60;99.90;;;;;;6208631;23;20210;-81
2022/07/04 10:24:03;;;;;;;6.67;3.37;;;20.70;99.90;;;;;;6183247;23;20179;-81
2022/07/04 10:26:32;;;;;;;7.57;4.17;;;20.80;99.90;;;;;;6159247;23;20161;-82
2022/07/04 10:29:00;;;;;;;4.67;3.83;;;20.80;99.90;;;;;;6133907;23;20616;-81
2022/07/04 10:31:29;;;;;;;7.63;4.20;;;20.60;99.90;;;;;;6159021;23;20239;-82
2022/07/04 10:33:58;;;;;;;7.17;4.10;;;20.60;99.90;;;;;;6158404;23;20199;-81
2022/07/04 10:36:30;;;;;;;5.90;3.87;;;20.70;99.90;;;;;;6180947;23;20221;-82
2022/07/04 10:39:02;;;;;;;7.43;4.13;;;20.60;99.90;;;;;;6182617;23;20191;-82
2022/07/04 10:41:30;;;;;;;7.03;4.13;;;20.40;99.90;;;;;;6159134;23;20546;-81
2022/07/04 10:44:03;;;;;;;4.73;3.93;;;20.50;99.90;;;;;;6158185;23;20244;-81
2022/07/04 10:46:37;;;;;;;5.47;3.60;;;20.60;99.90;;;;;;6209015;23;20587;-81
2022/07/04 10:49:24;;;;;;;5.63;3.20;;;20.80;99.90;;;;;;6162114;23;20817;-81
2022/07/04 10:52:10;;;;;;;4.50;3.20;;;21.20;99.90;;;;;;6185252;23;20175;-82
2022/07/04 10:54:39;;;;;;;5.23;3.07;;;21.70;99.90;;;;;;6186717;23;20259;-82
2022/07/04 10:57:21;;;;;;;8.63;3.87;;;21.90;99.90;;;;;;6185736;23;20164;-82
2022/07/04 11:00:10;;;;;;;6.47;3.03;;;21.70;99.90;;;;;;6186895;23;20176;-83
2022/07/04 11:02:38;;;;;;;6.60;3.30;;;21.40;99.90;;;;;;6162504;23;20192;-82
2022/07/04 11:05:11;;;;;;;3.93;2.77;;;21.40;99.90;;;;;;6161954;23;20243;-82
2022/07/04 11:07:41;;;;;;;5.20;3.00;;;21.10;99.90;;;;;;6162094;23;20584;-81
2022/07/04 11:10:16;;;;;;;6.27;3.83;;;21.00;99.90;;;;;;6185188;23;20160;-81
2022/07/04 11:12:55;;;;;;;6.70;2.87;;;21.10;99.90;;;;;;6185836;23;20182;-81
2022/07/04 11:15:32;;;;;;;7.80;3.17;;;21.20;99.90;;;;;;6184495;23;20158;-82
2022/07/04 11:18:01;;;;;;;8.03;3.00;;;21.60;99.90;;;;;;6183630;23;20195;-83
2022/07/04 11:20:30;;;;;;;3.80;3.00;;;22.30;99.90;;;;;;6183125;23;20200;-82
2022/07/04 11:23:08;;;;;;;5.10;2.13;;;22.70;98.20;;;;;;6160422;23;20168;-82
2022/07/04 11:25:35;;;;;;;7.47;2.00;;;22.50;10.60;;;;;;6160372;23;20168;-83
2022/07/04 11:28:25;;;;;;;7.07;2.23;;;23.00;19.30;;;;;;6183532;23;20193;-82
2022/07/04 11:31:12;;;;;;;7.23;2.83;;;23.20;1.00;;;;;;6188831;23;20206;-82
2022/07/04 11:33:41;;;;;;;3.20;2.20;;;23.30;1.00;;;;;;6181546;23;20247;-82
2022/07/04 11:36:11;;;;;;;8.27;2.87;;;24.00;9.40;;;;;;6183289;23;20531;-82
2022/07/04 11:39:04;;;;;;;4.53;2.20;;;24.00;1.00;;;;;;6183781;23;20215;-82
2022/07/04 11:47:17;;;;;;;3.73;1.73;;;23.10;1.00;;;;;;6209311;23;20174;-82
2022/07/04 11:49:52;;;;;;;1.93;1.53;;;22.80;1.00;;;;;;6183330;23;20726;-83
2022/07/04 11:52:24;;;;;;;4.57;1.83;;;22.60;1.00;;;;;;6183766;23;20180;-82
2022/07/04 11:55:14;;;;;;;4.10;1.90;;;22.40;1.00;;;;;;6165120;23;20234;-82
2022/07/04 11:57:43;;;;;;;4.70;1.80;;;22.10;1.00;;;;;;6182834;23;20490;-82
2022/07/04 12:00:13;;;;;;;2.13;1.70;;;22.10;11.60;;;;;;6180752;23;20210;-82
2022/07/04 12:02:45;;;;;;;6.83;2.30;;;22.70;4.10;;;;;;6183589;23;20200;-81
2022/07/04 12:05:12;;;;;;;3.53;1.80;;;23.10;1.00;;;;;;6207944;23;20159;-82
2022/07/04 12:07:42;;;;;;;6.37;1.90;;;23.70;1.00;;;;;;6158995;23;20168;-82
2022/07/04 12:10:28;;;;;;;3.93;1.70;;;23.90;1.00;;;;;;6187161;23;20161;-81
2022/07/04 12:13:08;;;;;;;4.27;1.40;;;23.90;1.00;;;;;;6159103;23;20522;-83
2022/07/04 12:15:40;;;;;;;2.17;1.23;;;24.00;1.00;;;;;;6160242;23;20164;-83
2022/07/04 12:18:29;;;;;;;3.97;1.63;;;24.00;1.00;;;;;;6181998;23;20199;-82
2022/07/04 12:21:11;;;;;;;2.63;1.33;;;23.70;1.00;;;;;;6184958;23;20192;-82
2022/07/04 12:23:39;;;;;;;3.07;1.87;;;24.00;1.00;;;;;;6185160;23;20167;-83
2022/07/04 12:26:27;;;;;;;3.03;1.80;;;24.10;1.00;;;;;;6171331;23;20177;-83
2022/07/04 12:28:56;;;;;;;2.03;1.70;;;24.20;1.00;;;;;;6161371;23;20187;-81
2022/07/04 12:31:43;;;;;;;14.30;3.13;;;24.10;1.00;;;;;;6186403;23;20535;-82
2022/07/04 12:34:14;;;;;;;4.47;2.00;;;24.50;1.00;;;;;;6160281;23;20654;-81
2022/07/04 12:36:55;;;;;;;4.37;1.53;;;24.30;1.00;;;;;;6187401;23;20182;-81
2022/07/04 12:39:28;;;;;;;3.70;1.67;;;24.00;1.00;;;;;;6187905;23;20172;-82
2022/07/04 12:42:05;;;;;;;3.47;1.77;;;24.20;1.00;;;;;;6200646;23;20201;-82
2022/07/04 12:44:32;;;;;;;3.40;1.70;;;24.20;1.00;;;;;;6157404;23;20166;-81
2022/07/04 12:46:59;;;;;;;4.53;1.50;;;24.10;1.00;;;;;;6156185;23;20240;-82
2022/07/04 12:49:44;;;;;;;2.00;1.63;;;24.50;1.00;;;;;;6157889;23;20186;-82
2022/07/04 12:52:15;;;;;;;3.97;1.53;;;24.70;1.00;;;;;;6155566;23;20160;-82
2022/07/04 12:54:45;;;;;;;4.60;1.53;;;25.00;1.00;;;;;;6181608;23;20175;-82
2022/07/04 12:57:14;;;;;;;3.50;1.70;;;24.80;1.00;;;;;;6182086;23;20168;-83
2022/07/04 12:59:42;;;;;;;2.87;1.60;;;24.60;1.00;;;;;;6156305;23;20199;-82
2022/07/04 13:02:10;;;;;;;2.53;1.40;;;24.70;1.00;;;;;;6155455;23;20173;-82
2022/07/04 13:04:37;;;;;;;3.40;1.57;;;24.60;1.00;;;;;;6131449;23;20494;-82
2022/07/04 13:07:16;;;;;;;2.67;1.70;;;24.80;1.00;;;;;;6123671;23;20165;-83
2022/07/04 13:09:45;;;;;;;3.70;1.60;;;25.00;1.00;;;;;;6154414;23;20165;-83
2022/07/04 13:12:25;;;;;;;3.73;1.90;;;24.60;1.00;;;;;;6151895;23;20193;-81
2022/07/04 13:14:57;;;;;;;2.10;1.43;;;24.60;1.00;;;;;;6179169;23;20165;-82
2022/07/04 13:17:25;;;;;;;1.50;1.37;;;24.90;1.00;;;;;;6180008;23;20169;-82